Tehran, Iran
Current Conditions -  °F | °C
As of 11:00 PM on Saturday 20 Dec 2014 (Local Time) from OIII Reporting Station
Moderate Rain Moderate Rain  
Wind Chill: 40°   Ceiling: 8000
Heat Index: 43°   Visibility: 1.2mi
Dew Point: 37°   Wind: 5mph
Humidity: 81%   Direction: 280°W
Pressure: 30.09"   Gusts: NA
Location:  35.67°N, 51.43°E
Report Text: OIII 202000Z 28004KT 2000 RA BR FEW035CB SCT040 OVC080 06/03 Q1019 A3009 TEMPO 1500 +RA BR
Loading
Personal Weather Stations






























Interactive Weather Map New forecast layout! Learn more

10-Day Weather Forecast

Advertisements
Track Severe Weather on mobile